Telluride, CO

9:25 PM MDT on August 23, 2017 (GMT -0600)
Telluride Regional

Weather History for KTEX - June, 2013

Change the Weather History Date:

Sunday, June 2, 2013

  Actual Average Record
Temperature  
Mean Temperature 56 °F -  
Max Temperature 69 °F 64 °F 84 °F (1997)
Min Temperature 42 °F 40 °F 39 °F (2003)
Degree Days  
Heating Degree Days 10    
Growing Degree Days 6 (Base 50)    
Moisture  
Dew Point 18 °F    
Average Humidity 24    
Maximum Humidity 42    
Minimum Humidity 11    
Precipitation  
Precipitation 0.00 in - - ()
Sea Level Pressure  
Sea Level Pressure 30.27 in    
Wind  
Wind Speed 7 mph (South)    
Max Wind Speed 24 mph    
Max Gust Speed 37 mph    
Visibility 10 miles    
Events      
Averages and records for this station are not official NWS values.
T = Trace of Precipitation, MM = Missing Value Source: NWS Daily Summary

Daily Weather History Graph

Daily Weather History Graph

Search for Another Location

Airport or City:

Trip Planner

Search our weather history database for the weather conditions in past years. The results will help you decide how hot, cold, wet, or windy it might be!

Date:

Astronomy

Jun. 02, 2013 Rise Set
Actual Time 5:50 AM MDT 8:29 PM MDT
Civil Twilight 5:19 AM MDT 9:00 PM MDT
Nautical Twilight 4:41 AM MDT 9:38 PM MDT
Astronomical Twilight 3:58 AM MDT 10:22 PM MDT
Moon 2:13 AM MDT (6/2) 3:07 PM MDT (6/2)
Length of Visible Light 15h 40m
Length of Day
14h 38m
Waning Crescent, 30% of the Moon is Illuminated
Jun 2
Waning Crescent
Jun 8
New
Jun 16
First Quarter
Jun 23
Full
Jun 29
Last Quarter

Hourly Weather History & Observations

Time (MDT) Temp. Windchill Dew Point Humidity Pressure Visibility Wind Dir Wind Speed Gust Speed Precip Events Conditions
12:15 AM 46.4 °F 42.9 °F 21.2 °F 37% 30.35 in 10.0 mi SE 6.9 mph - N/A   Clear
12:35 AM 46.4 °F 42.9 °F 21.2 °F 37% 30.35 in 10.0 mi SE 6.9 mph - N/A   Clear
12:55 AM 46.4 °F 43.5 °F 21.2 °F 37% 30.35 in 10.0 mi SE 5.8 mph - N/A   Clear
1:15 AM 44.6 °F 42.2 °F 21.2 °F 39% 30.35 in 10.0 mi ESE 4.6 mph - N/A   Clear
1:35 AM 44.6 °F 41.4 °F 21.2 °F 39% 30.34 in 10.0 mi ESE 5.8 mph - N/A   Clear
1:55 AM 44.6 °F 41.4 °F 21.2 °F 39% 30.33 in 10.0 mi SE 5.8 mph - N/A   Clear
2:15 AM 42.8 °F 39.3 °F 21.2 °F 42% 30.33 in 10.0 mi ESE 5.8 mph - N/A   Clear
2:35 AM 42.8 °F 38.6 °F 21.2 °F 42% 30.33 in 10.0 mi SE 6.9 mph - N/A   Clear
2:55 AM 42.8 °F 37.5 °F 21.2 °F 42% 30.32 in 10.0 mi SE 9.2 mph - N/A   Clear
3:15 AM 42.8 °F 41.1 °F 21.2 °F 42% 30.32 in 10.0 mi East 3.5 mph - N/A   Clear
3:35 AM 42.8 °F 38.6 °F 21.2 °F 42% 30.32 in 10.0 mi SE 6.9 mph - N/A   Clear
3:55 AM 42.8 °F 39.3 °F 21.2 °F 42% 30.32 in 10.0 mi SE 5.8 mph - N/A   Clear
4:15 AM 42.8 °F 39.3 °F 21.2 °F 42% 30.32 in 10.0 mi ESE 5.8 mph - N/A   Clear
4:35 AM 42.8 °F 38.0 °F 19.4 °F 39% 30.32 in 10.0 mi ESE 8.1 mph - N/A   Clear
4:55 AM 42.8 °F 38.0 °F 19.4 °F 39% 30.32 in 10.0 mi SE 8.1 mph - N/A   Clear
5:15 AM 42.8 °F 40.1 °F 19.4 °F 39% 30.32 in 10.0 mi ESE 4.6 mph - N/A   Clear
5:35 AM 42.8 °F 39.3 °F 17.6 °F 36% 30.32 in 10.0 mi East 5.8 mph - N/A   Clear
5:55 AM 42.8 °F 38.0 °F 17.6 °F 36% 30.32 in 10.0 mi ESE 8.1 mph - N/A   Clear
6:15 AM 42.8 °F 37.0 °F 15.8 °F 34% 30.32 in 10.0 mi ESE 10.4 mph - N/A   Clear
6:35 AM 42.8 °F 39.3 °F 15.8 °F 34% 30.32 in 10.0 mi ESE 5.8 mph - N/A   Clear
6:55 AM 44.6 °F 42.2 °F 17.6 °F 34% 30.33 in 10.0 mi ESE 4.6 mph - N/A   Clear
7:15 AM 46.4 °F 44.3 °F 15.8 °F 29% 30.33 in 10.0 mi ESE 4.6 mph - N/A   Clear
7:35 AM 50.0 °F - 15.8 °F 26% 30.33 in 10.0 mi ESE 6.9 mph - N/A   Clear
7:55 AM 51.8 °F - 15.8 °F 24% 30.33 in 10.0 mi East 3.5 mph - N/A   Clear
8:15 AM 53.6 °F - 17.6 °F 24% 30.32 in 10.0 mi Calm Calm - N/A   Clear
8:35 AM 57.2 °F - 14.0 °F 18% 30.32 in 10.0 mi Calm Calm - N/A   Clear
8:55 AM 60.8 °F - 12.2 °F 15% 30.32 in 10.0 mi Calm Calm - N/A   Clear
9:15 AM 60.8 °F - 12.2 °F 15% 30.32 in 10.0 mi Calm Calm - N/A   Clear
9:35 AM 62.6 °F - 14.0 °F 15% 30.31 in 10.0 mi Calm Calm - N/A   Clear
9:55 AM 62.6 °F - 14.0 °F 15% 30.30 in 10.0 mi East 4.6 mph - N/A   Clear
10:15 AM 64.4 °F - 10.4 °F 12% 30.30 in 10.0 mi SW 5.8 mph - N/A   Clear
10:35 AM 64.4 °F - 8.6 °F 11% 30.30 in 10.0 mi South 5.8 mph - N/A   Clear
10:55 AM 64.4 °F - 10.4 °F 12% 30.29 in 10.0 mi South 4.6 mph - N/A   Clear
11:15 AM 66.2 °F - 12.2 °F 12% 30.29 in 10.0 mi West 4.6 mph - N/A   Clear
11:35 AM 68.0 °F - 10.4 °F 11% 30.28 in 10.0 mi SSW 3.5 mph - N/A   Clear
11:55 AM 68.0 °F - 12.2 °F 12% 30.27 in 10.0 mi NNW 8.1 mph - N/A   Clear
12:15 PM 69.8 °F - 12.2 °F 11% 30.27 in 10.0 mi WSW 11.5 mph 18.4 mph N/A   Clear
12:35 PM 68.0 °F - 12.2 °F 12% 30.27 in 10.0 mi SW 11.5 mph 21.9 mph N/A   Clear
12:55 PM 68.0 °F - 14.0 °F 12% 30.26 in 10.0 mi WSW 15.0 mph 21.9 mph N/A   Clear
1:15 PM 68.0 °F - 14.0 °F 12% 30.26 in 10.0 mi WSW 11.5 mph 18.4 mph N/A   Clear
1:35 PM 69.8 °F - 15.8 °F 13% 30.26 in 10.0 mi WSW 9.2 mph 19.6 mph N/A   Clear
1:55 PM 68.0 °F - 15.8 °F 13% 30.25 in 10.0 mi West 11.5 mph 26.5 mph N/A   Scattered Clouds
2:15 PM 68.0 °F - 17.6 °F 15% 30.25 in 10.0 mi West 13.8 mph 25.3 mph N/A   Scattered Clouds
2:35 PM 68.0 °F - 17.6 °F 15% 30.24 in 10.0 mi West 17.3 mph 24.2 mph N/A   Mostly Cloudy
2:55 PM 68.0 °F - 19.4 °F 16% 30.23 in 10.0 mi WSW 16.1 mph 26.5 mph N/A   Scattered Clouds
3:15 PM 69.8 °F - 21.2 °F 16% 30.23 in 10.0 mi West 10.4 mph 23.0 mph N/A   Scattered Clouds
3:35 PM 69.8 °F - 21.2 °F 16% 30.22 in 10.0 mi WSW 8.1 mph 19.6 mph N/A   Scattered Clouds
3:55 PM 68.0 °F - 19.4 °F 16% 30.21 in 10.0 mi SW 16.1 mph 23.0 mph N/A   Scattered Clouds
4:15 PM 69.8 °F - 21.2 °F 16% 30.22 in 10.0 mi West 17.3 mph 24.2 mph N/A   Scattered Clouds
4:35 PM 64.4 °F - 23.0 °F 21% 30.22 in 10.0 mi South 24.2 mph 36.8 mph N/A   Scattered Clouds
4:55 PM 64.4 °F - 23.0 °F 21% 30.22 in 10.0 mi SW 3.5 mph - N/A   Scattered Clouds
5:15 PM 68.0 °F - 23.0 °F 18% 30.22 in 10.0 mi SW 8.1 mph - N/A   Clear
5:35 PM 66.2 °F - 21.2 °F 18% 30.21 in 10.0 mi SSW 13.8 mph 32.2 mph N/A   Scattered Clouds
5:55 PM 68.0 °F - 19.4 °F 16% 30.20 in 10.0 mi SSW 9.2 mph 18.4 mph N/A   Scattered Clouds
6:15 PM 66.2 °F - 17.6 °F 15% 30.19 in 10.0 mi South 9.2 mph 19.6 mph N/A   Clear
6:35 PM 66.2 °F - 19.4 °F 17% 30.18 in 10.0 mi SW 8.1 mph - N/A   Clear
6:55 PM 68.0 °F - 19.4 °F 16% 30.18 in 10.0 mi West 11.5 mph - N/A   Scattered Clouds
7:15 PM 68.0 °F - 17.6 °F 15% 30.18 in 10.0 mi SW 5.8 mph 16.1 mph N/A   Clear
7:35 PM 66.2 °F - 17.6 °F 15% 30.18 in 10.0 mi SSW 9.2 mph - N/A   Clear
7:55 PM 66.2 °F - 17.6 °F 15% 30.18 in 10.0 mi SSW 6.9 mph - N/A   Scattered Clouds
8:15 PM 66.2 °F - 17.6 °F 15% 30.18 in 10.0 mi SSW 9.2 mph 16.1 mph N/A   Mostly Cloudy
8:35 PM 64.4 °F - 17.6 °F 16% 30.19 in 10.0 mi SW 6.9 mph - N/A   Scattered Clouds
8:55 PM 64.4 °F - 17.6 °F 16% 30.19 in 10.0 mi Calm Calm - N/A   Clear
9:15 PM 60.8 °F - 21.2 °F 22% 30.19 in 10.0 mi Calm Calm - N/A   Clear
9:35 PM 59.0 °F - 21.2 °F 23% 30.20 in 10.0 mi Calm Calm - N/A   Clear
9:55 PM 60.8 °F - 21.2 °F 22% 30.20 in 10.0 mi SE 3.5 mph - N/A   Clear
10:15 PM 59.0 °F - 23.0 °F 25% 30.21 in 10.0 mi ESE 6.9 mph - N/A   Clear
10:35 PM 55.4 °F - 23.0 °F 29% 30.21 in 10.0 mi ENE 3.5 mph - N/A   Clear
10:55 PM 55.4 °F - 21.2 °F 26% 30.21 in 10.0 mi East 3.5 mph - N/A   Clear
11:15 PM 55.4 °F - 23.0 °F 29% 30.20 in 10.0 mi ESE 6.9 mph - N/A   Clear
11:35 PM 55.4 °F - 23.0 °F 29% 30.20 in 10.0 mi ESE 6.9 mph - N/A   Scattered Clouds
11:55 PM 55.4 °F - 23.0 °F 29% 30.20 in 10.0 mi SE 4.6 mph - N/A   Scattered Clouds